Strona główna
METAR-TAF:

METAR-TAF

Lotnisko :

Port lotniczy Rarotonga

Rarotonga, Wyspy Cooka

Szerokość geograficzna: 21-12S, Długość geograficzna: 159-49W, wysokość: 7 m

Aktualna obserwacja pogody

Raport powstał 36 minut temu, godzina 17:00 UTC
Wiatr 14 kt od wschód
Temperatura 22°C
Wilgotność 69%
Ciśnienie 1016 hPa
Widzialność 10 km lub więcej
Rozproszone chmury na wysokości 2100 ft
Przerywane chmury na wysokości 4500 ft

METAR: NCRG 181700Z 09014KT 9999 SCT021 BKN045 22/16 Q1016

czas: 07:36 (17:36 UTC)

Prognoza

Raport powstał 28 minut temu, godzina 17:08 UTC
Prognoza ważna od 18 godzina 18 UTC do 19 godzina 18 UTC
Wiatr 13 kt od wschód
Widzialność 10 km lub więcej
Rozproszone chmury na wysokości 2100 ft
Przerywane chmury na wysokości 4500 ft
Prawdopodobieństwo 40% :
Przejściowo
od 18 godzina 18 UTC do 19 godzina 12 UTC
Wiatr 15 kt od wschód w porywach dochodzący do 25 kt

TAF: NCRG 181708Z 1818/1918 09013KT 9999 SCT021 BKN045 PROB40 TEMPO 1818/1912 09015G25KT

Obserwacja i prognoza pogody dla ponad 4000 lotnisk (raport METAR i TAF).

Dostępne stacje oznaczono żółtymi i czerwonymi punktami na mapie.

Najedź kursorem aby zobaczyć nazwę stacji.

Kliknij aby zobaczyć obserwacje i prognozy pogody.

Aby zmienić mapę: kliknij na zielony przycisk z czarnym krzyżykiem, aby powiększyć; na zielony przycisk z myślnikiem, aby pomniejszyć; na zielone strzałki, aby przejść do map sąsiednich.


METAR-TAF: